createdAt,value
2019-02-15T00:00:17.870Z,98600.79
2019-02-15T00:05:12.470Z,98597.04
2019-02-15T00:10:07.727Z,98601.06
2019-02-15T00:15:02.304Z,98597.42
2019-02-15T00:20:01.075Z,98602.73
2019-02-15T00:24:55.672Z,98599.31
2019-02-15T00:29:50.354Z,98597.31
2019-02-15T00:34:44.944Z,98599.55
2019-02-15T00:39:39.541Z,98597.08
2019-02-15T00:44:34.149Z,98594.98
2019-02-15T00:49:30.378Z,98588.63
2019-02-15T00:54:32.713Z,98589.32
2019-02-15T00:59:31.798Z,98586.18
2019-02-15T01:04:31.628Z,98594.14
2019-02-15T01:09:36.373Z,98588.41
2019-02-15T01:14:30.969Z,98589.11
2019-02-15T01:19:25.548Z,98587.23
2019-02-15T01:24:20.223Z,98586.76
2019-02-15T01:29:19.235Z,98563.20
2019-02-15T01:34:16.331Z,98568.81
2019-02-15T01:39:13.133Z,98566.14
2019-02-15T01:44:12.043Z,98559.31
2019-02-15T01:49:06.630Z,98554.41
2019-02-15T01:54:01.259Z,98563.08
2019-02-15T01:58:55.862Z,98574.20
2019-02-15T02:03:50.535Z,98572.09
2019-02-15T02:08:45.136Z,98559.91
2019-02-15T02:13:48.994Z,98559.42
2019-02-15T02:18:36.072Z,98552.97
2019-02-15T02:23:30.678Z,98560.83
2019-02-15T02:28:25.279Z,98554.24
2019-02-15T02:33:19.861Z,98550.63
2019-02-15T02:38:14.457Z,98543.23
2019-02-15T02:43:09.051Z,98541.33
2019-02-15T02:48:03.640Z,98535.81
2019-02-15T02:52:58.272Z,98530.55
2019-02-15T02:57:52.841Z,98523.98
2019-02-15T03:02:47.451Z,98529.70
2019-02-15T03:07:42.050Z,98527.13
2019-02-15T03:12:36.664Z,98521.26
2019-02-15T03:17:31.280Z,98528.42
2019-02-15T03:22:25.872Z,98523.65
2019-02-15T03:27:20.498Z,98517.19
2019-02-15T03:32:15.095Z,98524.81
2019-02-15T03:37:11.334Z,98510.06
2019-02-15T03:42:06.109Z,98521.31
2019-02-15T03:47:00.678Z,98522.21
2019-02-15T03:51:55.296Z,98523.36
2019-02-15T03:56:49.896Z,98524.44
2019-02-15T04:01:44.586Z,98518.49
2019-02-15T04:06:39.180Z,98526.80
2019-02-15T04:11:33.781Z,98535.70
2019-02-15T04:16:28.362Z,98537.89
2019-02-15T04:21:22.956Z,98536.84
2019-02-15T04:26:17.537Z,98536.22
2019-02-15T04:31:12.147Z,98538.53
2019-02-15T04:36:06.761Z,98535.59
2019-02-15T04:41:01.374Z,98545.78
2019-02-15T04:45:55.963Z,98542.97
2019-02-15T04:50:50.557Z,98534.22
2019-02-15T04:55:45.164Z,98538.45
2019-02-15T05:00:39.776Z,98541.59
2019-02-15T05:05:34.365Z,98539.01
2019-02-15T05:10:28.973Z,98541.40
2019-02-15T05:15:23.583Z,98532.55
2019-02-15T05:20:18.161Z,98525.20
2019-02-15T05:25:12.754Z,98530.70
2019-02-15T05:30:09.381Z,98530.91
2019-02-15T05:35:03.968Z,98535.72
2019-02-15T05:39:58.620Z,98535.47
2019-02-15T05:45:03.037Z,98530.09
2019-02-15T05:49:49.542Z,98532.69
2019-02-15T05:54:44.162Z,98530.36
2019-02-15T05:59:38.777Z,98538.22
2019-02-15T06:04:33.445Z,98535.39
2019-02-15T06:09:28.056Z,98544.30
2019-02-15T06:14:22.636Z,98544.52
2019-02-15T06:19:17.234Z,98550.86
2019-02-15T06:24:11.812Z,98553.56
2019-02-15T06:29:06.402Z,98560.92
2019-02-15T06:34:00.979Z,98565.95
2019-02-15T06:38:55.572Z,98577.21
2019-02-15T06:43:50.183Z,98586.50
2019-02-15T06:48:44.779Z,98587.56
2019-02-15T06:53:39.353Z,98590.27
2019-02-15T06:58:34.606Z,98591.92
2019-02-15T07:03:33.902Z,98595.45
2019-02-15T07:08:28.486Z,98595.70
2019-02-15T07:13:23.077Z,98609.30
2019-02-15T07:18:17.674Z,98603.64
2019-02-15T07:23:12.256Z,98604.13
2019-02-15T07:28:06.850Z,98608.58
2019-02-15T07:33:01.483Z,98607.28
2019-02-15T07:37:56.546Z,98610.22
2019-02-15T07:42:51.150Z,98615.03
2019-02-15T07:47:45.720Z,98610.66
2019-02-15T07:52:40.861Z,98615.37
2019-02-15T07:57:41.035Z,98601.59
2019-02-15T08:02:35.685Z,98601.95
2019-02-15T08:07:33.595Z,98601.47
2019-02-15T08:12:28.442Z,98599.02
2019-02-15T08:17:26.559Z,98597.23
2019-02-15T08:22:22.814Z,98588.95
2019-02-15T08:27:17.513Z,98594.85
2019-02-15T08:32:12.142Z,98592.72
2019-02-15T08:37:06.756Z,98588.80
2019-02-15T08:42:04.458Z,98578.59
2019-02-15T08:46:58.947Z,98588.87
2019-02-15T08:51:53.543Z,98579.23
2019-02-15T08:56:48.137Z,98573.66
2019-02-15T09:01:42.813Z,98588.14
2019-02-15T09:06:37.962Z,98589.73
2019-02-15T09:11:35.873Z,98586.05
2019-02-15T09:16:36.917Z,98582.63
2019-02-15T09:21:31.996Z,98584.09
2019-02-15T09:26:26.588Z,98589.31
2019-02-15T09:31:21.254Z,98594.45
2019-02-15T09:36:15.832Z,98590.95
2019-02-15T09:41:11.326Z,98584.50
2019-02-15T09:46:05.934Z,98580.33
2019-02-15T09:51:00.715Z,98580.63
2019-02-15T09:55:55.499Z,98568.84
2019-02-15T10:01:00.324Z,98581.38
2019-02-15T10:05:55.684Z,98572.57
2019-02-15T10:10:51.715Z,98579.84
2019-02-15T10:15:46.398Z,98570.20
2019-02-15T10:20:41.031Z,98575.66
2019-02-15T10:25:35.716Z,98567.75
2019-02-15T10:30:30.358Z,98557.80
2019-02-15T10:35:25.232Z,98554.96
2019-02-15T10:40:22.045Z,98547.63
2019-02-15T10:45:17.520Z,98544.41
2019-02-15T10:50:12.954Z,98551.72
2019-02-15T10:55:09.454Z,98542.36
2019-02-15T11:00:22.148Z,98541.89
2019-02-15T11:05:17.835Z,98538.90
2019-02-15T11:10:12.689Z,98535.35
2019-02-15T11:15:17.005Z,98524.80
2019-02-15T11:20:18.731Z,98522.20
2019-02-15T11:25:13.324Z,98514.20
2019-02-15T11:30:16.281Z,98513.06
2019-02-15T11:35:13.065Z,98493.80
2019-02-15T11:40:16.083Z,98493.47
2019-02-15T11:45:14.105Z,98483.84
2019-02-15T11:50:12.280Z,98473.54
2019-02-15T11:55:09.906Z,98464.27
2019-02-15T12:00:15.579Z,98468.49
2019-02-15T12:05:11.489Z,98458.19
2019-02-15T12:10:09.803Z,98453.75
2019-02-15T12:15:08.985Z,98448.25
2019-02-15T12:20:03.952Z,98438.88
2019-02-15T12:24:58.566Z,98422.91
2019-02-15T12:29:53.158Z,98424.02
2019-02-15T12:34:47.765Z,98413.19
2019-02-15T12:39:42.378Z,98410.42
2019-02-15T12:44:38.265Z,98409.46
2019-02-15T12:49:32.910Z,98410.16
2019-02-15T12:54:27.605Z,98398.33
2019-02-15T12:59:22.305Z,98391.44
2019-02-15T13:04:16.981Z,98390.08
2019-02-15T13:09:11.689Z,98381.58
2019-02-15T13:14:06.453Z,98377.98
2019-02-15T13:19:01.024Z,98365.27
2019-02-15T13:23:55.630Z,98350.80
2019-02-15T13:28:50.221Z,98343.38
2019-02-15T13:33:44.833Z,98334.49
2019-02-15T13:38:39.415Z,98332.63
2019-02-15T13:43:34.005Z,98329.68
2019-02-15T13:48:28.943Z,98325.98
2019-02-15T13:53:23.877Z,98322.72
2019-02-15T13:58:18.458Z,98310.52
2019-02-15T14:03:13.042Z,98301.83
2019-02-15T14:08:07.724Z,98307.23
2019-02-15T14:13:02.305Z,98301.45
2019-02-15T14:17:56.923Z,98296.47
2019-02-15T14:22:51.590Z,98287.75
2019-02-15T14:27:46.196Z,98284.73
2019-02-15T14:32:40.942Z,98284.92
2019-02-15T14:37:35.744Z,98272.88
2019-02-15T14:42:30.658Z,98272.23
2019-02-15T14:47:25.764Z,98269.61
2019-02-15T14:52:20.546Z,98266.27
2019-02-15T14:57:15.278Z,98261.08
2019-02-15T15:02:10.092Z,98253.09
2019-02-15T15:07:04.988Z,98248.17
2019-02-15T15:11:59.816Z,98244.52
2019-02-15T15:16:55.908Z,98244.45
2019-02-15T15:21:50.776Z,98244.34
2019-02-15T15:26:45.615Z,98243.23
2019-02-15T15:31:40.358Z,98242.32
2019-02-15T15:36:35.159Z,98237.78
2019-02-15T15:41:29.752Z,98234.20
2019-02-15T15:46:24.339Z,98231.98
2019-02-15T15:51:18.916Z,98222.75
2019-02-15T15:56:13.513Z,98220.66
2019-02-15T16:01:08.183Z,98223.87
2019-02-15T16:06:02.816Z,98217.39
2019-02-15T16:10:57.375Z,98215.89
2019-02-15T16:15:51.983Z,98214.89
2019-02-15T16:20:47.040Z,98209.91
2019-02-15T16:25:41.630Z,98203.30
2019-02-15T16:30:36.233Z,98203.58
2019-02-15T16:35:30.832Z,98206.59
2019-02-15T16:40:25.427Z,98206.06
2019-02-15T16:45:20.026Z,98208.45
2019-02-15T16:50:14.887Z,98208.70
2019-02-15T16:55:13.143Z,98215.81
2019-02-15T17:00:12.655Z,98227.05
2019-02-15T17:05:08.325Z,98216.84
2019-02-15T17:10:02.986Z,98230.44
2019-02-15T17:14:57.568Z,98233.08
2019-02-15T17:19:52.165Z,98230.31
2019-02-15T17:24:46.776Z,98231.95
2019-02-15T17:29:41.357Z,98237.48
2019-02-15T17:34:35.946Z,98238.47
2019-02-15T17:39:30.564Z,98251.59
2019-02-15T17:44:25.168Z,98249.77
2019-02-15T17:49:19.779Z,98248.73
2019-02-15T17:54:14.371Z,98248.78
2019-02-15T17:59:08.952Z,98250.37
2019-02-15T18:04:03.552Z,98248.89
2019-02-15T18:08:58.135Z,98249.45
2019-02-15T18:13:52.727Z,98242.38
2019-02-15T18:18:47.314Z,98245.70
2019-02-15T18:23:41.912Z,98245.97
2019-02-15T18:28:36.495Z,98236.95
2019-02-15T18:33:31.070Z,98241.56
2019-02-15T18:38:25.664Z,98230.77
2019-02-15T18:43:20.306Z,98244.02
2019-02-15T18:48:14.919Z,98240.41
2019-02-15T18:53:09.511Z,98241.27
2019-02-15T18:58:04.104Z,98238.50
2019-02-15T19:02:58.773Z,98229.21
2019-02-15T19:07:53.350Z,98226.95
2019-02-15T19:12:47.979Z,98232.27
2019-02-15T19:17:42.574Z,98232.64
2019-02-15T19:22:37.163Z,98236.92
2019-02-15T19:27:31.742Z,98234.30
2019-02-15T19:32:26.327Z,98233.05
2019-02-15T19:37:22.269Z,98230.42
2019-02-15T19:42:16.912Z,98230.02
2019-02-15T19:47:11.502Z,98226.77
2019-02-15T19:52:06.081Z,98226.39
2019-02-15T19:57:00.678Z,98215.73
2019-02-15T20:01:55.369Z,98226.75
2019-02-15T20:06:50.003Z,98217.09
2019-02-15T20:11:44.612Z,98219.88
2019-02-15T20:16:39.192Z,98216.28
2019-02-15T20:21:33.799Z,98222.17
2019-02-15T20:26:28.484Z,98220.95
2019-02-15T20:31:23.056Z,98216.48
2019-02-15T20:36:17.650Z,98217.63
2019-02-15T20:41:12.245Z,98214.97
2019-02-15T20:46:06.864Z,98220.18
2019-02-15T20:51:01.454Z,98214.48
2019-02-15T20:55:56.086Z,98217.47
2019-02-15T21:00:50.692Z,98216.33
2019-02-15T21:05:45.357Z,98212.09
2019-02-15T21:10:39.931Z,98208.20
2019-02-15T21:15:34.532Z,98214.14
2019-02-15T21:20:29.132Z,98214.63
2019-02-15T21:25:23.816Z,98205.28
2019-02-15T21:30:21.446Z,98208.42
2019-02-15T21:35:16.133Z,98215.92
2019-02-15T21:40:14.513Z,98216.52
2019-02-15T21:45:11.920Z,98217.47
2019-02-15T21:50:16.642Z,98212.70
2019-02-15T21:55:10.470Z,98204.94
2019-02-15T22:00:11.836Z,98214.05
2019-02-15T22:05:07.684Z,98206.20
2019-02-15T22:10:02.276Z,98203.73
2019-02-15T22:14:56.878Z,98203.81
2019-02-15T22:19:51.463Z,98203.27
2019-02-15T22:24:46.050Z,98214.20
2019-02-15T22:29:40.650Z,98209.77
2019-02-15T22:34:35.248Z,98211.82
2019-02-15T22:39:29.832Z,98211.33
2019-02-15T22:44:24.504Z,98206.38
2019-02-15T22:49:19.099Z,98215.42
2019-02-15T22:54:13.686Z,98222.13
2019-02-15T22:59:08.289Z,98224.37
2019-02-15T23:04:02.882Z,98223.05
2019-02-15T23:08:57.628Z,98230.77
2019-02-15T23:13:52.237Z,98235.30
2019-02-15T23:18:47.072Z,98244.82
2019-02-15T23:23:41.694Z,98247.64
2019-02-15T23:28:36.294Z,98241.57
2019-02-15T23:33:30.904Z,98241.36
2019-02-15T23:38:25.500Z,98247.08
2019-02-15T23:43:20.087Z,98251.03
2019-02-15T23:48:14.673Z,98242.41
2019-02-15T23:53:09.289Z,98243.54
2019-02-15T23:58:03.954Z,98244.11
